sensor_id;sensor_type;location;lat;lon;timestamp;temperature;humidity
59075;DHT22;44860;53.020;6.738;2023-10-09T00:01:40;14.10;99.90
59075;DHT22;44860;53.020;6.738;2023-10-09T00:04:12;14.10;99.90
59075;DHT22;44860;53.020;6.738;2023-10-09T00:06:41;14.10;99.90
59075;DHT22;44860;53.020;6.738;2023-10-09T00:09:08;14.10;99.90
59075;DHT22;44860;53.020;6.738;2023-10-09T00:11:43;14.10;99.90
59075;DHT22;44860;53.020;6.738;2023-10-09T00:14:11;14.20;99.90
59075;DHT22;44860;53.020;6.738;2023-10-09T00:16:37;14.20;99.90
59075;DHT22;44860;53.020;6.738;2023-10-09T00:19:12;14.20;99.90
59075;DHT22;44860;53.020;6.738;2023-10-09T00:21:51;14.20;99.90
59075;DHT22;44860;53.020;6.738;2023-10-09T00:24:20;14.10;99.90
59075;DHT22;44860;53.020;6.738;2023-10-09T00:26:53;14.20;99.90
59075;DHT22;44860;53.020;6.738;2023-10-09T00:29:36;14.20;99.90
59075;DHT22;44860;53.020;6.738;2023-10-09T00:32:07;14.20;99.90
59075;DHT22;44860;53.020;6.738;2023-10-09T00:34:50;14.10;99.90
59075;DHT22;44860;53.020;6.738;2023-10-09T00:37:17;14.10;99.90
59075;DHT22;44860;53.020;6.738;2023-10-09T00:39:45;14.20;99.90
59075;DHT22;44860;53.020;6.738;2023-10-09T00:42:14;14.10;99.90
59075;DHT22;44860;53.020;6.738;2023-10-09T00:44:47;14.10;99.90
59075;DHT22;44860;53.020;6.738;2023-10-09T00:47:15;14.10;99.90
59075;DHT22;44860;53.020;6.738;2023-10-09T00:49:51;14.10;99.90
59075;DHT22;44860;53.020;6.738;2023-10-09T00:52:28;14.10;99.90
59075;DHT22;44860;53.020;6.738;2023-10-09T00:55:00;14.10;99.90
59075;DHT22;44860;53.020;6.738;2023-10-09T00:57:34;14.10;99.90
59075;DHT22;44860;53.020;6.738;2023-10-09T01:00:03;14.20;99.90
59075;DHT22;44860;53.020;6.738;2023-10-09T01:02:49;14.20;99.90
59075;DHT22;44860;53.020;6.738;2023-10-09T01:05:36;14.20;99.90
59075;DHT22;44860;53.020;6.738;2023-10-09T01:08:02;14.20;99.90
59075;DHT22;44860;53.020;6.738;2023-10-09T01:10:47;14.20;99.90
59075;DHT22;44860;53.020;6.738;2023-10-09T01:13:25;14.20;99.90
59075;DHT22;44860;53.020;6.738;2023-10-09T01:16:05;14.20;99.90
59075;DHT22;44860;53.020;6.738;2023-10-09T01:18:31;14.20;99.90
59075;DHT22;44860;53.020;6.738;2023-10-09T01:21:02;14.20;99.90
59075;DHT22;44860;53.020;6.738;2023-10-09T01:23:28;14.20;99.90
59075;DHT22;44860;53.020;6.738;2023-10-09T01:25:55;14.20;99.90
59075;DHT22;44860;53.020;6.738;2023-10-09T01:28:21;14.20;99.90
59075;DHT22;44860;53.020;6.738;2023-10-09T01:30:46;14.20;99.90
59075;DHT22;44860;53.020;6.738;2023-10-09T01:33:13;14.20;99.90
59075;DHT22;44860;53.020;6.738;2023-10-09T01:35:48;14.20;99.90
59075;DHT22;44860;53.020;6.738;2023-10-09T01:38:15;14.20;99.90
59075;DHT22;44860;53.020;6.738;2023-10-09T01:40:41;14.20;99.90
59075;DHT22;44860;53.020;6.738;2023-10-09T01:43:08;14.20;99.90
59075;DHT22;44860;53.020;6.738;2023-10-09T01:45:37;14.20;99.90
59075;DHT22;44860;53.020;6.738;2023-10-09T01:48:07;14.30;99.90
59075;DHT22;44860;53.020;6.738;2023-10-09T01:50:34;14.20;99.90
59075;DHT22;44860;53.020;6.738;2023-10-09T01:53:04;14.20;99.90
59075;DHT22;44860;53.020;6.738;2023-10-09T01:55:33;14.20;99.90
59075;DHT22;44860;53.020;6.738;2023-10-09T01:58:03;14.20;99.90
59075;DHT22;44860;53.020;6.738;2023-10-09T02:00:55;14.30;99.90
59075;DHT22;44860;53.020;6.738;2023-10-09T02:03:22;14.20;99.90
59075;DHT22;44860;53.020;6.738;2023-10-09T02:05:54;14.20;99.90
59075;DHT22;44860;53.020;6.738;2023-10-09T02:08:25;14.20;99.90
59075;DHT22;44860;53.020;6.738;2023-10-09T02:11:01;14.20;99.90
59075;DHT22;44860;53.020;6.738;2023-10-09T02:13:28;14.20;99.90
59075;DHT22;44860;53.020;6.738;2023-10-09T02:16:00;14.20;99.90
59075;DHT22;44860;53.020;6.738;2023-10-09T02:18:42;14.20;99.90
59075;DHT22;44860;53.020;6.738;2023-10-09T02:21:24;14.30;99.90
59075;DHT22;44860;53.020;6.738;2023-10-09T02:24:03;14.20;99.90
59075;DHT22;44860;53.020;6.738;2023-10-09T02:26:35;14.20;99.90
59075;DHT22;44860;53.020;6.738;2023-10-09T02:29:04;14.30;99.90
59075;DHT22;44860;53.020;6.738;2023-10-09T02:31:38;14.30;99.90
59075;DHT22;44860;53.020;6.738;2023-10-09T02:34:10;14.30;99.90
59075;DHT22;44860;53.020;6.738;2023-10-09T02:36:41;14.30;99.90
59075;DHT22;44860;53.020;6.738;2023-10-09T02:39:14;14.30;99.90
59075;DHT22;44860;53.020;6.738;2023-10-09T02:41:53;14.30;99.90
59075;DHT22;44860;53.020;6.738;2023-10-09T02:44:26;14.30;99.90
59075;DHT22;44860;53.020;6.738;2023-10-09T02:46:52;14.30;99.90
59075;DHT22;44860;53.020;6.738;2023-10-09T02:49:23;14.30;99.90
59075;DHT22;44860;53.020;6.738;2023-10-09T02:51:49;14.30;99.90
59075;DHT22;44860;53.020;6.738;2023-10-09T02:54:19;14.30;99.90
59075;DHT22;44860;53.020;6.738;2023-10-09T02:56:48;14.30;99.90
59075;DHT22;44860;53.020;6.738;2023-10-09T02:59:21;14.30;99.90
59075;DHT22;44860;53.020;6.738;2023-10-09T03:01:50;14.30;99.90
59075;DHT22;44860;53.020;6.738;2023-10-09T03:04:19;14.30;99.90
59075;DHT22;44860;53.020;6.738;2023-10-09T03:06:45;14.30;99.90
59075;DHT22;44860;53.020;6.738;2023-10-09T03:09:20;14.30;99.90
59075;DHT22;44860;53.020;6.738;2023-10-09T03:11:53;14.30;99.90
59075;DHT22;44860;53.020;6.738;2023-10-09T03:14:22;14.30;99.90
59075;DHT22;44860;53.020;6.738;2023-10-09T03:16:56;14.40;99.90
59075;DHT22;44860;53.020;6.738;2023-10-09T03:19:25;14.40;99.90
59075;DHT22;44860;53.020;6.738;2023-10-09T03:21:52;14.40;99.90
59075;DHT22;44860;53.020;6.738;2023-10-09T03:24:17;14.40;99.90
59075;DHT22;44860;53.020;6.738;2023-10-09T03:26:48;14.40;99.90
59075;DHT22;44860;53.020;6.738;2023-10-09T03:29:15;14.40;99.90
59075;DHT22;44860;53.020;6.738;2023-10-09T03:31:41;14.40;99.90
59075;DHT22;44860;53.020;6.738;2023-10-09T03:34:08;14.50;99.90
59075;DHT22;44860;53.020;6.738;2023-10-09T03:36:36;14.50;99.90
59075;DHT22;44860;53.020;6.738;2023-10-09T03:39:04;14.50;99.90
59075;DHT22;44860;53.020;6.738;2023-10-09T03:41:44;14.50;99.90
59075;DHT22;44860;53.020;6.738;2023-10-09T03:44:13;14.50;99.90
59075;DHT22;44860;53.020;6.738;2023-10-09T03:46:39;14.60;99.90
59075;DHT22;44860;53.020;6.738;2023-10-09T03:49:09;14.60;99.90
59075;DHT22;44860;53.020;6.738;2023-10-09T03:51:37;14.60;99.90
59075;DHT22;44860;53.020;6.738;2023-10-09T03:54:03;14.60;99.90
59075;DHT22;44860;53.020;6.738;2023-10-09T03:56:33;14.60;99.90
59075;DHT22;44860;53.020;6.738;2023-10-09T03:58:59;14.60;99.90
59075;DHT22;44860;53.020;6.738;2023-10-09T04:01:26;14.70;99.90
59075;DHT22;44860;53.020;6.738;2023-10-09T04:04:00;14.70;99.90
59075;DHT22;44860;53.020;6.738;2023-10-09T04:06:27;14.70;99.90
59075;DHT22;44860;53.020;6.738;2023-10-09T04:09:02;14.70;99.90
59075;DHT22;44860;53.020;6.738;2023-10-09T04:11:52;14.80;99.90
59075;DHT22;44860;53.020;6.738;2023-10-09T04:14:41;14.70;99.90
59075;DHT22;44860;53.020;6.738;2023-10-09T04:17:20;14.80;99.90
59075;DHT22;44860;53.020;6.738;2023-10-09T04:19:49;14.80;99.90
59075;DHT22;44860;53.020;6.738;2023-10-09T04:22:35;14.80;99.90
59075;DHT22;44860;53.020;6.738;2023-10-09T04:25:05;14.80;99.90
59075;DHT22;44860;53.020;6.738;2023-10-09T04:27:43;14.90;99.90
59075;DHT22;44860;53.020;6.738;2023-10-09T04:30:12;14.90;99.90
59075;DHT22;44860;53.020;6.738;2023-10-09T04:32:41;14.90;99.90
59075;DHT22;44860;53.020;6.738;2023-10-09T04:35:13;14.90;99.90
59075;DHT22;44860;53.020;6.738;2023-10-09T04:37:52;14.90;99.90
59075;DHT22;44860;53.020;6.738;2023-10-09T04:40:25;14.90;99.90
59075;DHT22;44860;53.020;6.738;2023-10-09T04:43:13;14.90;99.90
59075;DHT22;44860;53.020;6.738;2023-10-09T04:45:47;14.90;99.90
59075;DHT22;44860;53.020;6.738;2023-10-09T04:48:31;14.90;99.90
59075;DHT22;44860;53.020;6.738;2023-10-09T04:51:11;14.90;99.90
59075;DHT22;44860;53.020;6.738;2023-10-09T04:54:00;15.00;99.90
59075;DHT22;44860;53.020;6.738;2023-10-09T04:56:39;14.90;99.90
59075;DHT22;44860;53.020;6.738;2023-10-09T04:59:20;15.00;99.90
59075;DHT22;44860;53.020;6.738;2023-10-09T05:01:51;15.00;99.90
59075;DHT22;44860;53.020;6.738;2023-10-09T05:04:30;15.00;99.90
59075;DHT22;44860;53.020;6.738;2023-10-09T05:07:15;15.00;99.90
59075;DHT22;44860;53.020;6.738;2023-10-09T05:10:02;15.00;99.90
59075;DHT22;44860;53.020;6.738;2023-10-09T05:12:40;15.00;99.90
59075;DHT22;44860;53.020;6.738;2023-10-09T05:15:13;15.10;99.90
59075;DHT22;44860;53.020;6.738;2023-10-09T05:17:39;15.10;99.90
59075;DHT22;44860;53.020;6.738;2023-10-09T05:20:06;15.10;99.90
59075;DHT22;44860;53.020;6.738;2023-10-09T05:22:50;15.10;99.90
59075;DHT22;44860;53.020;6.738;2023-10-09T05:25:44;15.10;99.90
59075;DHT22;44860;53.020;6.738;2023-10-09T05:28:19;15.10;99.90
59075;DHT22;44860;53.020;6.738;2023-10-09T05:30:57;15.20;99.90
59075;DHT22;44860;53.020;6.738;2023-10-09T05:33:35;15.10;99.90
59075;DHT22;44860;53.020;6.738;2023-10-09T05:36:04;15.20;99.90
59075;DHT22;44860;53.020;6.738;2023-10-09T05:38:48;15.20;99.90
59075;DHT22;44860;53.020;6.738;2023-10-09T05:41:27;15.20;99.90
59075;DHT22;44860;53.020;6.738;2023-10-09T05:44:12;15.20;99.90
59075;DHT22;44860;53.020;6.738;2023-10-09T05:46:56;15.30;99.90
59075;DHT22;44860;53.020;6.738;2023-10-09T05:49:40;15.30;99.90
59075;DHT22;44860;53.020;6.738;2023-10-09T05:52:13;15.30;99.90
59075;DHT22;44860;53.020;6.738;2023-10-09T05:54:57;15.30;99.90
59075;DHT22;44860;53.020;6.738;2023-10-09T05:57:56;15.40;99.90
59075;DHT22;44860;53.020;6.738;2023-10-09T06:00:40;15.40;99.90
59075;DHT22;44860;53.020;6.738;2023-10-09T06:03:24;15.40;99.90
59075;DHT22;44860;53.020;6.738;2023-10-09T06:06:13;15.40;99.90
59075;DHT22;44860;53.020;6.738;2023-10-09T06:09:09;15.50;99.90
59075;DHT22;44860;53.020;6.738;2023-10-09T06:11:41;15.50;99.90
59075;DHT22;44860;53.020;6.738;2023-10-09T06:14:16;15.60;99.90
59075;DHT22;44860;53.020;6.738;2023-10-09T06:16:51;15.50;99.90
59075;DHT22;44860;53.020;6.738;2023-10-09T06:19:25;15.60;99.90
59075;DHT22;44860;53.020;6.738;2023-10-09T06:21:55;15.60;99.90
59075;DHT22;44860;53.020;6.738;2023-10-09T06:24:41;15.70;99.90
59075;DHT22;44860;53.020;6.738;2023-10-09T06:27:11;15.60;99.90
59075;DHT22;44860;53.020;6.738;2023-10-09T06:29:42;15.70;99.90
59075;DHT22;44860;53.020;6.738;2023-10-09T06:32:12;15.70;99.90
59075;DHT22;44860;53.020;6.738;2023-10-09T06:37:20;15.70;99.90
59075;DHT22;44860;53.020;6.738;2023-10-09T06:39:52;15.70;99.90
59075;DHT22;44860;53.020;6.738;2023-10-09T06:42:30;15.70;99.90
59075;DHT22;44860;53.020;6.738;2023-10-09T06:45:05;15.80;99.90
59075;DHT22;44860;53.020;6.738;2023-10-09T06:47:51;15.80;99.90
59075;DHT22;44860;53.020;6.738;2023-10-09T06:50:35;15.80;99.90
59075;DHT22;44860;53.020;6.738;2023-10-09T06:53:19;15.90;99.90
59075;DHT22;44860;53.020;6.738;2023-10-09T06:55:46;15.90;99.90
59075;DHT22;44860;53.020;6.738;2023-10-09T06:58:19;15.90;99.90
59075;DHT22;44860;53.020;6.738;2023-10-09T07:01:08;16.00;99.90
59075;DHT22;44860;53.020;6.738;2023-10-09T07:03:57;16.00;99.90
59075;DHT22;44860;53.020;6.738;2023-10-09T07:06:36;15.90;99.90
59075;DHT22;44860;53.020;6.738;2023-10-09T07:09:02;15.90;99.90
59075;DHT22;44860;53.020;6.738;2023-10-09T07:11:34;16.00;99.90
59075;DHT22;44860;53.020;6.738;2023-10-09T07:14:17;16.00;99.90
59075;DHT22;44860;53.020;6.738;2023-10-09T07:17:18;16.00;99.90
59075;DHT22;44860;53.020;6.738;2023-10-09T07:19:59;16.00;99.90
59075;DHT22;44860;53.020;6.738;2023-10-09T07:22:42;16.00;99.90
59075;DHT22;44860;53.020;6.738;2023-10-09T07:25:22;16.00;99.90
59075;DHT22;44860;53.020;6.738;2023-10-09T07:28:21;16.10;99.90
59075;DHT22;44860;53.020;6.738;2023-10-09T07:31:03;16.00;99.90
59075;DHT22;44860;53.020;6.738;2023-10-09T07:33:29;16.00;99.90
59075;DHT22;44860;53.020;6.738;2023-10-09T07:36:17;16.10;99.90
59075;DHT22;44860;53.020;6.738;2023-10-09T07:38:55;16.10;99.90
59075;DHT22;44860;53.020;6.738;2023-10-09T07:41:21;16.10;99.90
59075;DHT22;44860;53.020;6.738;2023-10-09T07:43:47;16.10;99.90
59075;DHT22;44860;53.020;6.738;2023-10-09T07:46:18;16.10;99.90
59075;DHT22;44860;53.020;6.738;2023-10-09T07:48:59;16.10;99.90
59075;DHT22;44860;53.020;6.738;2023-10-09T07:51:26;16.10;99.90
59075;DHT22;44860;53.020;6.738;2023-10-09T07:53:59;16.10;99.90
59075;DHT22;44860;53.020;6.738;2023-10-09T07:56:34;16.10;99.90
59075;DHT22;44860;53.020;6.738;2023-10-09T07:59:18;16.10;99.90
59075;DHT22;44860;53.020;6.738;2023-10-09T08:01:46;16.10;99.90
59075;DHT22;44860;53.020;6.738;2023-10-09T08:04:19;16.10;99.90
59075;DHT22;44860;53.020;6.738;2023-10-09T08:07:04;16.20;99.90
59075;DHT22;44860;53.020;6.738;2023-10-09T08:09:35;16.20;99.90
59075;DHT22;44860;53.020;6.738;2023-10-09T08:12:30;16.20;99.90
59075;DHT22;44860;53.020;6.738;2023-10-09T08:15:29;16.20;99.90
59075;DHT22;44860;53.020;6.738;2023-10-09T08:18:16;16.20;99.90
59075;DHT22;44860;53.020;6.738;2023-10-09T08:20:54;16.20;99.90
59075;DHT22;44860;53.020;6.738;2023-10-09T08:23:23;16.20;99.90
59075;DHT22;44860;53.020;6.738;2023-10-09T08:26:02;16.20;99.90
59075;DHT22;44860;53.020;6.738;2023-10-09T08:28:44;16.30;99.90
59075;DHT22;44860;53.020;6.738;2023-10-09T08:31:16;16.30;99.90
59075;DHT22;44860;53.020;6.738;2023-10-09T08:33:48;16.30;99.90
59075;DHT22;44860;53.020;6.738;2023-10-09T08:36:25;16.30;99.90
59075;DHT22;44860;53.020;6.738;2023-10-09T08:38:56;16.30;99.90
59075;DHT22;44860;53.020;6.738;2023-10-09T08:41:24;16.30;99.90
59075;DHT22;44860;53.020;6.738;2023-10-09T08:43:57;16.40;99.90
59075;DHT22;44860;53.020;6.738;2023-10-09T08:46:27;16.40;99.90
59075;DHT22;44860;53.020;6.738;2023-10-09T08:48:55;16.40;99.90
59075;DHT22;44860;53.020;6.738;2023-10-09T08:51:23;16.40;99.90
59075;DHT22;44860;53.020;6.738;2023-10-09T08:53:49;16.40;99.90
59075;DHT22;44860;53.020;6.738;2023-10-09T08:56:20;16.40;99.90
59075;DHT22;44860;53.020;6.738;2023-10-09T08:58:56;16.40;99.90
59075;DHT22;44860;53.020;6.738;2023-10-09T09:01:23;16.40;99.90
59075;DHT22;44860;53.020;6.738;2023-10-09T09:03:51;16.40;99.90
59075;DHT22;44860;53.020;6.738;2023-10-09T09:06:21;16.40;99.90
59075;DHT22;44860;53.020;6.738;2023-10-09T09:08:47;16.40;99.90
59075;DHT22;44860;53.020;6.738;2023-10-09T09:11:15;16.40;99.90
59075;DHT22;44860;53.020;6.738;2023-10-09T09:13:47;16.40;99.90
59075;DHT22;44860;53.020;6.738;2023-10-09T09:16:24;16.40;99.90
59075;DHT22;44860;53.020;6.738;2023-10-09T09:19:04;16.40;99.90
59075;DHT22;44860;53.020;6.738;2023-10-09T09:24:06;16.50;99.90
59075;DHT22;44860;53.020;6.738;2023-10-09T09:26:47;16.50;99.90
59075;DHT22;44860;53.020;6.738;2023-10-09T09:29:37;16.50;99.90
59075;DHT22;44860;53.020;6.738;2023-10-09T09:32:08;16.50;99.90
59075;DHT22;44860;53.020;6.738;2023-10-09T09:34:56;16.50;99.90
59075;DHT22;44860;53.020;6.738;2023-10-09T09:37:30;16.50;99.90
59075;DHT22;44860;53.020;6.738;2023-10-09T09:40:04;16.60;99.90
59075;DHT22;44860;53.020;6.738;2023-10-09T09:42:49;16.60;99.90
59075;DHT22;44860;53.020;6.738;2023-10-09T09:45:14;16.60;99.90
59075;DHT22;44860;53.020;6.738;2023-10-09T09:47:44;16.60;99.90
59075;DHT22;44860;53.020;6.738;2023-10-09T09:50:17;16.60;99.90
59075;DHT22;44860;53.020;6.738;2023-10-09T09:52:54;16.60;99.90
59075;DHT22;44860;53.020;6.738;2023-10-09T09:55:27;16.60;99.90
59075;DHT22;44860;53.020;6.738;2023-10-09T09:57:57;16.70;99.90
59075;DHT22;44860;53.020;6.738;2023-10-09T10:00:29;16.60;99.90
59075;DHT22;44860;53.020;6.738;2023-10-09T10:03:14;16.70;99.90
59075;DHT22;44860;53.020;6.738;2023-10-09T10:05:44;16.70;99.90
59075;DHT22;44860;53.020;6.738;2023-10-09T10:08:19;16.70;99.90
59075;DHT22;44860;53.020;6.738;2023-10-09T10:10:49;16.80;99.90
59075;DHT22;44860;53.020;6.738;2023-10-09T10:16:11;16.80;99.90
59075;DHT22;44860;53.020;6.738;2023-10-09T10:21:33;16.80;99.90
59075;DHT22;44860;53.020;6.738;2023-10-09T10:24:03;16.80;99.90
59075;DHT22;44860;53.020;6.738;2023-10-09T10:26:32;16.90;99.90
59075;DHT22;44860;53.020;6.738;2023-10-09T10:29:18;16.90;99.90
59075;DHT22;44860;53.020;6.738;2023-10-09T10:32:03;16.90;99.90
59075;DHT22;44860;53.020;6.738;2023-10-09T10:34:56;16.90;99.90
59075;DHT22;44860;53.020;6.738;2023-10-09T10:37:37;17.00;99.90
59075;DHT22;44860;53.020;6.738;2023-10-09T10:40:10;17.00;99.90
59075;DHT22;44860;53.020;6.738;2023-10-09T10:43:01;17.00;99.90
59075;DHT22;44860;53.020;6.738;2023-10-09T10:45:45;17.00;99.90
59075;DHT22;44860;53.020;6.738;2023-10-09T10:48:11;17.00;99.90
59075;DHT22;44860;53.020;6.738;2023-10-09T10:51:03;17.00;99.90
59075;DHT22;44860;53.020;6.738;2023-10-09T10:53:30;17.00;99.90
59075;DHT22;44860;53.020;6.738;2023-10-09T10:56:13;17.00;99.90
59075;DHT22;44860;53.020;6.738;2023-10-09T10:58:41;16.90;99.90
59075;DHT22;44860;53.020;6.738;2023-10-09T11:01:19;16.90;99.90
59075;DHT22;44860;53.020;6.738;2023-10-09T11:03:48;16.90;99.90
59075;DHT22;44860;53.020;6.738;2023-10-09T11:06:30;16.90;99.90
59075;DHT22;44860;53.020;6.738;2023-10-09T11:09:07;16.90;99.90
59075;DHT22;44860;53.020;6.738;2023-10-09T11:11:50;16.90;99.90
59075;DHT22;44860;53.020;6.738;2023-10-09T11:14:20;16.90;99.90
59075;DHT22;44860;53.020;6.738;2023-10-09T11:16:49;16.90;99.90
59075;DHT22;44860;53.020;6.738;2023-10-09T11:19:20;16.90;99.90
59075;DHT22;44860;53.020;6.738;2023-10-09T11:21:52;16.90;99.90
59075;DHT22;44860;53.020;6.738;2023-10-09T11:24:40;16.90;99.90
59075;DHT22;44860;53.020;6.738;2023-10-09T11:27:09;16.90;99.90
59075;DHT22;44860;53.020;6.738;2023-10-09T11:29:51;16.90;99.90
59075;DHT22;44860;53.020;6.738;2023-10-09T11:32:19;16.90;99.90
59075;DHT22;44860;53.020;6.738;2023-10-09T11:34:48;16.90;99.90
59075;DHT22;44860;53.020;6.738;2023-10-09T11:37:19;16.90;99.90
59075;DHT22;44860;53.020;6.738;2023-10-09T11:40:04;16.90;99.90
59075;DHT22;44860;53.020;6.738;2023-10-09T11:42:34;16.90;99.90
59075;DHT22;44860;53.020;6.738;2023-10-09T11:45:08;16.90;99.90
59075;DHT22;44860;53.020;6.738;2023-10-09T11:47:58;16.90;99.90
59075;DHT22;44860;53.020;6.738;2023-10-09T11:50:47;16.90;99.90
59075;DHT22;44860;53.020;6.738;2023-10-09T11:53:27;16.90;99.90
59075;DHT22;44860;53.020;6.738;2023-10-09T11:55:53;16.90;99.90
59075;DHT22;44860;53.020;6.738;2023-10-09T11:58:20;16.90;99.90
59075;DHT22;44860;53.020;6.738;2023-10-09T12:00:56;16.90;99.90
59075;DHT22;44860;53.020;6.738;2023-10-09T12:03:29;16.90;99.90
59075;DHT22;44860;53.020;6.738;2023-10-09T12:06:04;16.90;99.90
59075;DHT22;44860;53.020;6.738;2023-10-09T12:08:34;17.00;99.90
59075;DHT22;44860;53.020;6.738;2023-10-09T12:11:02;17.00;99.90
59075;DHT22;44860;53.020;6.738;2023-10-09T12:13:33;17.10;99.90
59075;DHT22;44860;53.020;6.738;2023-10-09T12:15:59;17.20;99.90
59075;DHT22;44860;53.020;6.738;2023-10-09T12:18:25;17.20;99.90
59075;DHT22;44860;53.020;6.738;2023-10-09T12:20:51;17.20;99.90
59075;DHT22;44860;53.020;6.738;2023-10-09T12:23:19;17.30;99.90
59075;DHT22;44860;53.020;6.738;2023-10-09T12:25:45;17.30;99.90
59075;DHT22;44860;53.020;6.738;2023-10-09T12:28:11;17.30;99.90
59075;DHT22;44860;53.020;6.738;2023-10-09T12:30:38;17.30;99.90
59075;DHT22;44860;53.020;6.738;2023-10-09T12:33:19;17.30;99.90
59075;DHT22;44860;53.020;6.738;2023-10-09T12:35:51;17.30;99.90
59075;DHT22;44860;53.020;6.738;2023-10-09T12:38:17;17.30;99.90
59075;DHT22;44860;53.020;6.738;2023-10-09T12:40:47;17.30;99.90
59075;DHT22;44860;53.020;6.738;2023-10-09T12:43:19;17.30;99.90
59075;DHT22;44860;53.020;6.738;2023-10-09T12:45:48;17.30;99.90
59075;DHT22;44860;53.020;6.738;2023-10-09T12:48:14;17.40;99.90
59075;DHT22;44860;53.020;6.738;2023-10-09T12:50:40;17.40;99.90
59075;DHT22;44860;53.020;6.738;2023-10-09T12:53:12;17.40;99.90
59075;DHT22;44860;53.020;6.738;2023-10-09T12:55:43;17.40;99.90
59075;DHT22;44860;53.020;6.738;2023-10-09T12:58:10;17.50;99.90
59075;DHT22;44860;53.020;6.738;2023-10-09T13:00:40;17.50;99.90
59075;DHT22;44860;53.020;6.738;2023-10-09T13:03:12;17.50;99.90
59075;DHT22;44860;53.020;6.738;2023-10-09T13:05:48;17.50;99.90
59075;DHT22;44860;53.020;6.738;2023-10-09T13:08:22;17.50;99.90
59075;DHT22;44860;53.020;6.738;2023-10-09T13:10:50;17.50;99.90
59075;DHT22;44860;53.020;6.738;2023-10-09T13:13:25;17.60;99.90
59075;DHT22;44860;53.020;6.738;2023-10-09T13:15:52;17.60;99.90
59075;DHT22;44860;53.020;6.738;2023-10-09T13:18:18;17.60;99.90
59075;DHT22;44860;53.020;6.738;2023-10-09T13:20:44;17.70;99.90
59075;DHT22;44860;53.020;6.738;2023-10-09T13:23:11;17.70;99.90
59075;DHT22;44860;53.020;6.738;2023-10-09T13:25:40;17.80;99.90
59075;DHT22;44860;53.020;6.738;2023-10-09T13:28:06;17.80;99.90
59075;DHT22;44860;53.020;6.738;2023-10-09T13:30:32;17.80;99.90
59075;DHT22;44860;53.020;6.738;2023-10-09T13:33:04;17.80;99.90
59075;DHT22;44860;53.020;6.738;2023-10-09T13:35:31;17.80;99.90
59075;DHT22;44860;53.020;6.738;2023-10-09T13:38:04;17.80;99.90
59075;DHT22;44860;53.020;6.738;2023-10-09T13:40:33;17.70;99.90
59075;DHT22;44860;53.020;6.738;2023-10-09T13:43:02;17.70;99.90
59075;DHT22;44860;53.020;6.738;2023-10-09T13:45:29;17.70;99.90
59075;DHT22;44860;53.020;6.738;2023-10-09T13:47:59;17.60;99.90
59075;DHT22;44860;53.020;6.738;2023-10-09T13:50:28;17.50;99.90
59075;DHT22;44860;53.020;6.738;2023-10-09T13:52:57;17.50;99.90
59075;DHT22;44860;53.020;6.738;2023-10-09T13:55:23;17.50;99.90
59075;DHT22;44860;53.020;6.738;2023-10-09T13:57:57;17.50;99.90
59075;DHT22;44860;53.020;6.738;2023-10-09T14:00:23;17.50;99.90
59075;DHT22;44860;53.020;6.738;2023-10-09T14:03:00;17.50;99.90
59075;DHT22;44860;53.020;6.738;2023-10-09T14:05:37;17.50;99.90
59075;DHT22;44860;53.020;6.738;2023-10-09T14:08:10;17.50;99.90
59075;DHT22;44860;53.020;6.738;2023-10-09T14:10:37;17.50;99.90
59075;DHT22;44860;53.020;6.738;2023-10-09T14:13:04;17.50;99.90
59075;DHT22;44860;53.020;6.738;2023-10-09T14:15:37;17.40;99.90
59075;DHT22;44860;53.020;6.738;2023-10-09T14:18:07;17.40;99.90
59075;DHT22;44860;53.020;6.738;2023-10-09T14:20:34;17.40;99.90
59075;DHT22;44860;53.020;6.738;2023-10-09T14:23:01;17.40;99.90
59075;DHT22;44860;53.020;6.738;2023-10-09T14:25:36;17.40;99.90
59075;DHT22;44860;53.020;6.738;2023-10-09T14:28:14;17.40;99.90
59075;DHT22;44860;53.020;6.738;2023-10-09T14:30:44;17.40;99.90
59075;DHT22;44860;53.020;6.738;2023-10-09T14:33:12;17.40;99.90
59075;DHT22;44860;53.020;6.738;2023-10-09T14:35:41;17.30;99.90
59075;DHT22;44860;53.020;6.738;2023-10-09T14:38:08;17.30;99.90
59075;DHT22;44860;53.020;6.738;2023-10-09T14:40:46;17.30;99.90
59075;DHT22;44860;53.020;6.738;2023-10-09T14:43:13;17.30;99.90
59075;DHT22;44860;53.020;6.738;2023-10-09T14:45:46;17.30;99.90
59075;DHT22;44860;53.020;6.738;2023-10-09T14:48:15;17.30;99.90
59075;DHT22;44860;53.020;6.738;2023-10-09T14:50:50;17.30;99.90
59075;DHT22;44860;53.020;6.738;2023-10-09T14:53:21;17.30;99.90
59075;DHT22;44860;53.020;6.738;2023-10-09T14:55:54;17.30;99.90
59075;DHT22;44860;53.020;6.738;2023-10-09T14:58:20;17.30;99.90
59075;DHT22;44860;53.020;6.738;2023-10-09T15:00:45;17.30;99.90
59075;DHT22;44860;53.020;6.738;2023-10-09T15:03:15;17.30;99.90
59075;DHT22;44860;53.020;6.738;2023-10-09T15:05:41;17.30;99.90
59075;DHT22;44860;53.020;6.738;2023-10-09T15:08:08;17.30;99.90
59075;DHT22;44860;53.020;6.738;2023-10-09T15:10:44;17.30;99.90
59075;DHT22;44860;53.020;6.738;2023-10-09T15:13:10;17.30;99.90
59075;DHT22;44860;53.020;6.738;2023-10-09T15:15:42;17.30;99.90
59075;DHT22;44860;53.020;6.738;2023-10-09T15:18:08;17.20;99.90
59075;DHT22;44860;53.020;6.738;2023-10-09T15:20:37;17.20;99.90
59075;DHT22;44860;53.020;6.738;2023-10-09T15:23:05;17.20;99.90
59075;DHT22;44860;53.020;6.738;2023-10-09T15:25:31;17.20;99.90
59075;DHT22;44860;53.020;6.738;2023-10-09T15:28:02;17.20;99.90
59075;DHT22;44860;53.020;6.738;2023-10-09T15:30:29;17.20;99.90
59075;DHT22;44860;53.020;6.738;2023-10-09T15:32:57;17.10;99.90
59075;DHT22;44860;53.020;6.738;2023-10-09T15:35:23;17.10;99.90
59075;DHT22;44860;53.020;6.738;2023-10-09T15:37:49;17.10;99.90
59075;DHT22;44860;53.020;6.738;2023-10-09T15:40:18;17.10;99.90
59075;DHT22;44860;53.020;6.738;2023-10-09T15:42:50;17.10;99.90
59075;DHT22;44860;53.020;6.738;2023-10-09T15:45:16;17.10;99.90
59075;DHT22;44860;53.020;6.738;2023-10-09T15:47:42;17.10;99.90
59075;DHT22;44860;53.020;6.738;2023-10-09T15:50:10;17.00;99.90
59075;DHT22;44860;53.020;6.738;2023-10-09T15:52:38;17.00;99.90
59075;DHT22;44860;53.020;6.738;2023-10-09T15:55:06;17.00;99.90
59075;DHT22;44860;53.020;6.738;2023-10-09T15:57:42;17.00;99.90
59075;DHT22;44860;53.020;6.738;2023-10-09T16:00:08;17.00;99.90
59075;DHT22;44860;53.020;6.738;2023-10-09T16:02:48;17.00;99.90
59075;DHT22;44860;53.020;6.738;2023-10-09T16:05:14;16.90;99.90
59075;DHT22;44860;53.020;6.738;2023-10-09T16:07:42;16.90;99.90
59075;DHT22;44860;53.020;6.738;2023-10-09T16:10:09;16.90;99.90
59075;DHT22;44860;53.020;6.738;2023-10-09T16:12:36;16.90;99.90
59075;DHT22;44860;53.020;6.738;2023-10-09T16:15:03;16.90;99.90
59075;DHT22;44860;53.020;6.738;2023-10-09T16:17:35;16.90;99.90
59075;DHT22;44860;53.020;6.738;2023-10-09T16:20:03;16.80;99.90